sensor_id;sensor_type;location;lat;lon;timestamp;P1;durP1;ratioP1;P2;durP2;ratioP2
54937;SDS011;52756;52.826;6.214;2022-10-16T00:01:26;5.45;;;1.55;;
54937;SDS011;52756;52.826;6.214;2022-10-16T00:03:54;4.88;;;1.55;;
54937;SDS011;52756;52.826;6.214;2022-10-16T00:06:21;4.97;;;1.60;;
54937;SDS011;52756;52.826;6.214;2022-10-16T00:08:48;4.75;;;1.58;;
54937;SDS011;52756;52.826;6.214;2022-10-16T00:11:16;7.80;;;1.98;;
54937;SDS011;52756;52.826;6.214;2022-10-16T00:13:44;7.13;;;1.90;;
54937;SDS011;52756;52.826;6.214;2022-10-16T00:16:11;5.10;;;1.48;;
54937;SDS011;52756;52.826;6.214;2022-10-16T00:18:38;6.13;;;1.58;;
54937;SDS011;52756;52.826;6.214;2022-10-16T00:21:05;5.18;;;1.73;;
54937;SDS011;52756;52.826;6.214;2022-10-16T00:23:35;4.90;;;1.80;;
54937;SDS011;52756;52.826;6.214;2022-10-16T00:26:02;4.50;;;1.98;;
54937;SDS011;52756;52.826;6.214;2022-10-16T00:28:30;6.80;;;1.77;;
54937;SDS011;52756;52.826;6.214;2022-10-16T00:30:56;7.88;;;1.70;;
54937;SDS011;52756;52.826;6.214;2022-10-16T00:33:23;7.30;;;1.77;;
54937;SDS011;52756;52.826;6.214;2022-10-16T00:35:49;7.47;;;1.77;;
54937;SDS011;52756;52.826;6.214;2022-10-16T00:38:15;3.42;;;1.67;;
54937;SDS011;52756;52.826;6.214;2022-10-16T00:40:41;4.30;;;1.77;;
54937;SDS011;52756;52.826;6.214;2022-10-16T00:43:14;5.43;;;1.90;;
54937;SDS011;52756;52.826;6.214;2022-10-16T00:46:00;5.88;;;2.25;;
54937;SDS011;52756;52.826;6.214;2022-10-16T00:48:27;6.32;;;1.60;;
54937;SDS011;52756;52.826;6.214;2022-10-16T00:50:53;4.40;;;1.67;;
54937;SDS011;52756;52.826;6.214;2022-10-16T00:53:19;7.78;;;2.63;;
54937;SDS011;52756;52.826;6.214;2022-10-16T00:55:45;6.43;;;1.73;;
54937;SDS011;52756;52.826;6.214;2022-10-16T00:58:11;6.15;;;1.95;;
54937;SDS011;52756;52.826;6.214;2022-10-16T01:00:37;6.50;;;1.48;;
54937;SDS011;52756;52.826;6.214;2022-10-16T01:03:21;4.70;;;1.40;;
54937;SDS011;52756;52.826;6.214;2022-10-16T01:08:32;4.85;;;1.90;;
54937;SDS011;52756;52.826;6.214;2022-10-16T01:11:07;4.35;;;1.20;;
54937;SDS011;52756;52.826;6.214;2022-10-16T01:13:43;4.65;;;1.85;;
54937;SDS011;52756;52.826;6.214;2022-10-16T01:19:50;5.93;;;1.60;;
54937;SDS011;52756;52.826;6.214;2022-10-16T01:21:57;6.20;;;1.80;;
54937;SDS011;52756;52.826;6.214;2022-10-16T01:24:31;5.43;;;1.83;;
54937;SDS011;52756;52.826;6.214;2022-10-16T01:29:58;3.65;;;1.33;;
54937;SDS011;52756;52.826;6.214;2022-10-16T01:35:18;5.10;;;1.45;;
54937;SDS011;52756;52.826;6.214;2022-10-16T01:37:56;5.90;;;1.63;;
54937;SDS011;52756;52.826;6.214;2022-10-16T01:40:37;5.38;;;1.40;;
54937;SDS011;52756;52.826;6.214;2022-10-16T01:43:11;4.03;;;1.33;;
54937;SDS011;52756;52.826;6.214;2022-10-16T01:45:40;5.85;;;1.45;;
54937;SDS011;52756;52.826;6.214;2022-10-16T01:48:09;5.38;;;1.48;;
54937;SDS011;52756;52.826;6.214;2022-10-16T01:50:37;4.57;;;1.40;;
54937;SDS011;52756;52.826;6.214;2022-10-16T01:53:05;3.22;;;1.35;;
54937;SDS011;52756;52.826;6.214;2022-10-16T01:55:36;5.78;;;1.50;;
54937;SDS011;52756;52.826;6.214;2022-10-16T01:58:07;4.45;;;1.50;;
54937;SDS011;52756;52.826;6.214;2022-10-16T02:00:36;3.22;;;1.20;;
54937;SDS011;52756;52.826;6.214;2022-10-16T02:03:04;5.97;;;1.52;;
54937;SDS011;52756;52.826;6.214;2022-10-16T02:05:39;4.85;;;1.35;;
54937;SDS011;52756;52.826;6.214;2022-10-16T02:08:10;4.70;;;1.73;;
54937;SDS011;52756;52.826;6.214;2022-10-16T02:10:36;4.53;;;1.23;;
54937;SDS011;52756;52.826;6.214;2022-10-16T02:13:05;4.57;;;1.58;;
54937;SDS011;52756;52.826;6.214;2022-10-16T02:15:34;3.25;;;1.35;;
54937;SDS011;52756;52.826;6.214;2022-10-16T02:18:01;2.17;;;1.23;;
54937;SDS011;52756;52.826;6.214;2022-10-16T02:20:28;4.28;;;1.17;;
54937;SDS011;52756;52.826;6.214;2022-10-16T02:23:01;2.63;;;1.53;;
54937;SDS011;52756;52.826;6.214;2022-10-16T02:25:33;7.35;;;1.65;;
54937;SDS011;52756;52.826;6.214;2022-10-16T02:30:51;4.00;;;1.85;;
54937;SDS011;52756;52.826;6.214;2022-10-16T02:33:22;8.73;;;2.17;;
54937;SDS011;52756;52.826;6.214;2022-10-16T02:35:50;6.32;;;2.22;;
54937;SDS011;52756;52.826;6.214;2022-10-16T02:38:17;3.53;;;1.40;;
54937;SDS011;52756;52.826;6.214;2022-10-16T02:40:45;3.58;;;1.88;;
54937;SDS011;52756;52.826;6.214;2022-10-16T02:43:11;4.03;;;1.65;;
54937;SDS011;52756;52.826;6.214;2022-10-16T02:45:37;1.70;;;1.20;;
54937;SDS011;52756;52.826;6.214;2022-10-16T02:48:03;5.05;;;1.60;;
54937;SDS011;52756;52.826;6.214;2022-10-16T02:50:28;4.10;;;1.42;;
54937;SDS011;52756;52.826;6.214;2022-10-16T02:52:54;3.63;;;1.80;;
54937;SDS011;52756;52.826;6.214;2022-10-16T02:55:20;2.65;;;1.63;;
54937;SDS011;52756;52.826;6.214;2022-10-16T02:57:45;6.20;;;1.70;;
54937;SDS011;52756;52.826;6.214;2022-10-16T03:00:12;2.55;;;1.40;;
54937;SDS011;52756;52.826;6.214;2022-10-16T03:02:40;3.63;;;1.23;;
54937;SDS011;52756;52.826;6.214;2022-10-16T03:05:06;4.82;;;1.40;;
54937;SDS011;52756;52.826;6.214;2022-10-16T03:07:33;3.40;;;1.48;;
54937;SDS011;52756;52.826;6.214;2022-10-16T03:09:58;6.15;;;1.80;;
54937;SDS011;52756;52.826;6.214;2022-10-16T03:12:27;4.78;;;2.08;;
54937;SDS011;52756;52.826;6.214;2022-10-16T03:14:55;2.90;;;1.40;;
54937;SDS011;52756;52.826;6.214;2022-10-16T03:17:21;4.68;;;1.58;;
54937;SDS011;52756;52.826;6.214;2022-10-16T03:19:48;3.83;;;1.35;;
54937;SDS011;52756;52.826;6.214;2022-10-16T03:22:13;3.72;;;1.35;;
54937;SDS011;52756;52.826;6.214;2022-10-16T03:24:39;5.75;;;1.38;;
54937;SDS011;52756;52.826;6.214;2022-10-16T03:27:05;4.40;;;1.55;;
54937;SDS011;52756;52.826;6.214;2022-10-16T03:29:31;4.45;;;1.40;;
54937;SDS011;52756;52.826;6.214;2022-10-16T03:31:57;4.55;;;1.70;;
54937;SDS011;52756;52.826;6.214;2022-10-16T03:34:24;4.38;;;1.50;;
54937;SDS011;52756;52.826;6.214;2022-10-16T03:36:50;4.97;;;1.70;;
54937;SDS011;52756;52.826;6.214;2022-10-16T03:39:16;3.25;;;1.63;;
54937;SDS011;52756;52.826;6.214;2022-10-16T03:41:42;4.78;;;1.80;;
54937;SDS011;52756;52.826;6.214;2022-10-16T03:44:08;3.10;;;1.60;;
54937;SDS011;52756;52.826;6.214;2022-10-16T03:46:33;4.53;;;1.60;;
54937;SDS011;52756;52.826;6.214;2022-10-16T03:48:59;5.07;;;1.70;;
54937;SDS011;52756;52.826;6.214;2022-10-16T03:51:25;4.50;;;1.60;;
54937;SDS011;52756;52.826;6.214;2022-10-16T03:53:50;4.47;;;1.80;;
54937;SDS011;52756;52.826;6.214;2022-10-16T03:56:16;4.05;;;2.45;;
54937;SDS011;52756;52.826;6.214;2022-10-16T03:58:41;3.38;;;1.60;;
54937;SDS011;52756;52.826;6.214;2022-10-16T04:01:07;4.75;;;1.73;;
54937;SDS011;52756;52.826;6.214;2022-10-16T04:03:33;4.18;;;1.70;;
54937;SDS011;52756;52.826;6.214;2022-10-16T04:05:58;6.47;;;1.52;;
54937;SDS011;52756;52.826;6.214;2022-10-16T04:08:24;3.67;;;1.70;;
54937;SDS011;52756;52.826;6.214;2022-10-16T04:10:50;3.40;;;1.92;;
54937;SDS011;52756;52.826;6.214;2022-10-16T04:13:16;4.40;;;1.98;;
54937;SDS011;52756;52.826;6.214;2022-10-16T04:15:42;4.80;;;1.70;;
54937;SDS011;52756;52.826;6.214;2022-10-16T04:18:07;3.38;;;1.70;;
54937;SDS011;52756;52.826;6.214;2022-10-16T04:20:33;2.92;;;1.80;;
54937;SDS011;52756;52.826;6.214;2022-10-16T04:22:59;3.08;;;1.73;;
54937;SDS011;52756;52.826;6.214;2022-10-16T04:25:25;5.47;;;2.15;;
54937;SDS011;52756;52.826;6.214;2022-10-16T04:27:52;4.45;;;1.90;;
54937;SDS011;52756;52.826;6.214;2022-10-16T04:30:18;4.63;;;2.33;;
54937;SDS011;52756;52.826;6.214;2022-10-16T04:32:47;5.20;;;2.30;;
54937;SDS011;52756;52.826;6.214;2022-10-16T04:35:15;4.32;;;2.13;;
54937;SDS011;52756;52.826;6.214;2022-10-16T04:37:41;3.38;;;2.10;;
54937;SDS011;52756;52.826;6.214;2022-10-16T04:40:06;3.42;;;1.90;;
54937;SDS011;52756;52.826;6.214;2022-10-16T04:42:32;6.57;;;2.70;;
54937;SDS011;52756;52.826;6.214;2022-10-16T04:44:58;3.38;;;2.25;;
54937;SDS011;52756;52.826;6.214;2022-10-16T04:47:24;3.92;;;2.40;;
54937;SDS011;52756;52.826;6.214;2022-10-16T04:49:49;4.28;;;2.58;;
54937;SDS011;52756;52.826;6.214;2022-10-16T04:52:15;3.45;;;2.03;;
54937;SDS011;52756;52.826;6.214;2022-10-16T04:54:41;4.32;;;2.60;;
54937;SDS011;52756;52.826;6.214;2022-10-16T04:57:07;6.78;;;2.90;;
54937;SDS011;52756;52.826;6.214;2022-10-16T04:59:32;6.32;;;2.85;;
54937;SDS011;52756;52.826;6.214;2022-10-16T05:01:58;3.20;;;2.03;;
54937;SDS011;52756;52.826;6.214;2022-10-16T05:04:23;3.22;;;2.30;;
54937;SDS011;52756;52.826;6.214;2022-10-16T05:06:49;4.38;;;2.65;;
54937;SDS011;52756;52.826;6.214;2022-10-16T05:09:15;5.30;;;2.22;;
54937;SDS011;52756;52.826;6.214;2022-10-16T05:11:40;4.80;;;2.20;;
54937;SDS011;52756;52.826;6.214;2022-10-16T05:14:06;6.72;;;3.35;;
54937;SDS011;52756;52.826;6.214;2022-10-16T05:16:32;3.53;;;2.67;;
54937;SDS011;52756;52.826;6.214;2022-10-16T05:18:57;5.95;;;2.80;;
54937;SDS011;52756;52.826;6.214;2022-10-16T05:21:23;6.03;;;2.45;;
54937;SDS011;52756;52.826;6.214;2022-10-16T05:23:48;6.28;;;2.72;;
54937;SDS011;52756;52.826;6.214;2022-10-16T05:26:14;5.30;;;2.38;;
54937;SDS011;52756;52.826;6.214;2022-10-16T05:28:40;5.22;;;2.97;;
54937;SDS011;52756;52.826;6.214;2022-10-16T05:31:06;8.30;;;2.90;;
54937;SDS011;52756;52.826;6.214;2022-10-16T05:33:32;5.07;;;2.30;;
54937;SDS011;52756;52.826;6.214;2022-10-16T05:36:02;3.67;;;2.28;;
54937;SDS011;52756;52.826;6.214;2022-10-16T05:38:28;3.95;;;2.53;;
54937;SDS011;52756;52.826;6.214;2022-10-16T05:40:54;5.80;;;2.20;;
54937;SDS011;52756;52.826;6.214;2022-10-16T05:43:20;6.25;;;2.67;;
54937;SDS011;52756;52.826;6.214;2022-10-16T05:45:53;6.18;;;2.83;;
54937;SDS011;52756;52.826;6.214;2022-10-16T05:48:22;5.60;;;2.25;;
54937;SDS011;52756;52.826;6.214;2022-10-16T05:50:48;7.85;;;2.70;;
54937;SDS011;52756;52.826;6.214;2022-10-16T05:53:21;3.85;;;2.55;;
54937;SDS011;52756;52.826;6.214;2022-10-16T05:55:56;4.30;;;2.35;;
54937;SDS011;52756;52.826;6.214;2022-10-16T05:58:23;5.57;;;2.85;;
54937;SDS011;52756;52.826;6.214;2022-10-16T06:00:54;5.78;;;2.60;;
54937;SDS011;52756;52.826;6.214;2022-10-16T06:03:23;4.70;;;2.20;;
54937;SDS011;52756;52.826;6.214;2022-10-16T06:05:49;5.80;;;2.42;;
54937;SDS011;52756;52.826;6.214;2022-10-16T06:08:15;5.55;;;2.40;;
54937;SDS011;52756;52.826;6.214;2022-10-16T06:10:42;4.35;;;2.00;;
54937;SDS011;52756;52.826;6.214;2022-10-16T06:13:09;4.88;;;2.45;;
54937;SDS011;52756;52.826;6.214;2022-10-16T06:15:35;4.25;;;2.50;;
54937;SDS011;52756;52.826;6.214;2022-10-16T06:18:00;4.63;;;2.17;;
54937;SDS011;52756;52.826;6.214;2022-10-16T06:20:26;6.47;;;2.78;;
54937;SDS011;52756;52.826;6.214;2022-10-16T06:22:51;3.75;;;2.22;;
54937;SDS011;52756;52.826;6.214;2022-10-16T06:25:17;5.70;;;2.90;;
54937;SDS011;52756;52.826;6.214;2022-10-16T06:27:43;3.22;;;1.73;;
54937;SDS011;52756;52.826;6.214;2022-10-16T06:30:08;3.67;;;2.10;;
54937;SDS011;52756;52.826;6.214;2022-10-16T06:32:34;5.15;;;2.17;;
54937;SDS011;52756;52.826;6.214;2022-10-16T06:35:00;5.60;;;2.40;;
54937;SDS011;52756;52.826;6.214;2022-10-16T06:37:26;5.22;;;2.47;;
54937;SDS011;52756;52.826;6.214;2022-10-16T06:39:52;3.80;;;2.60;;
54937;SDS011;52756;52.826;6.214;2022-10-16T06:42:18;6.18;;;2.33;;
54937;SDS011;52756;52.826;6.214;2022-10-16T06:44:44;4.13;;;2.20;;
54937;SDS011;52756;52.826;6.214;2022-10-16T06:47:09;4.53;;;2.35;;
54937;SDS011;52756;52.826;6.214;2022-10-16T06:49:35;4.80;;;2.10;;
54937;SDS011;52756;52.826;6.214;2022-10-16T06:52:01;5.65;;;2.60;;
54937;SDS011;52756;52.826;6.214;2022-10-16T06:54:27;4.97;;;2.30;;
54937;SDS011;52756;52.826;6.214;2022-10-16T06:56:53;5.63;;;2.20;;
54937;SDS011;52756;52.826;6.214;2022-10-16T06:59:20;6.05;;;2.58;;
54937;SDS011;52756;52.826;6.214;2022-10-16T07:01:46;5.97;;;2.35;;
54937;SDS011;52756;52.826;6.214;2022-10-16T07:04:11;4.28;;;2.30;;
54937;SDS011;52756;52.826;6.214;2022-10-16T07:06:37;7.20;;;2.20;;
54937;SDS011;52756;52.826;6.214;2022-10-16T07:09:04;5.00;;;2.08;;
54937;SDS011;52756;52.826;6.214;2022-10-16T07:11:33;4.35;;;2.08;;
54937;SDS011;52756;52.826;6.214;2022-10-16T07:13:59;4.57;;;2.10;;
54937;SDS011;52756;52.826;6.214;2022-10-16T07:16:25;4.20;;;1.92;;
54937;SDS011;52756;52.826;6.214;2022-10-16T07:18:54;4.00;;;1.95;;
54937;SDS011;52756;52.826;6.214;2022-10-16T07:21:23;3.60;;;1.90;;
54937;SDS011;52756;52.826;6.214;2022-10-16T07:23:51;4.63;;;2.22;;
54937;SDS011;52756;52.826;6.214;2022-10-16T07:26:17;4.20;;;1.77;;
54937;SDS011;52756;52.826;6.214;2022-10-16T07:28:43;2.97;;;1.67;;
54937;SDS011;52756;52.826;6.214;2022-10-16T07:31:10;4.43;;;1.55;;
54937;SDS011;52756;52.826;6.214;2022-10-16T07:33:38;6.00;;;1.58;;
54937;SDS011;52756;52.826;6.214;2022-10-16T07:36:07;3.30;;;1.83;;
54937;SDS011;52756;52.826;6.214;2022-10-16T07:38:34;4.40;;;1.65;;
54937;SDS011;52756;52.826;6.214;2022-10-16T07:41:03;4.85;;;1.77;;
54937;SDS011;52756;52.826;6.214;2022-10-16T07:43:31;3.00;;;1.42;;
54937;SDS011;52756;52.826;6.214;2022-10-16T07:45:57;2.60;;;1.10;;
54937;SDS011;52756;52.826;6.214;2022-10-16T07:48:23;4.75;;;1.67;;
54937;SDS011;52756;52.826;6.214;2022-10-16T07:50:51;5.03;;;1.13;;
54937;SDS011;52756;52.826;6.214;2022-10-16T07:53:17;4.07;;;1.60;;
54937;SDS011;52756;52.826;6.214;2022-10-16T07:55:43;2.42;;;1.13;;
54937;SDS011;52756;52.826;6.214;2022-10-16T07:58:09;3.13;;;1.20;;
54937;SDS011;52756;52.826;6.214;2022-10-16T08:00:35;4.13;;;1.27;;
54937;SDS011;52756;52.826;6.214;2022-10-16T08:03:02;3.70;;;1.23;;
54937;SDS011;52756;52.826;6.214;2022-10-16T08:05:28;3.28;;;1.80;;
54937;SDS011;52756;52.826;6.214;2022-10-16T08:07:56;4.55;;;1.10;;
54937;SDS011;52756;52.826;6.214;2022-10-16T08:10:22;3.65;;;1.40;;
54937;SDS011;52756;52.826;6.214;2022-10-16T08:12:50;3.75;;;1.20;;
54937;SDS011;52756;52.826;6.214;2022-10-16T08:15:16;3.17;;;0.93;;
54937;SDS011;52756;52.826;6.214;2022-10-16T08:17:42;4.75;;;1.20;;
54937;SDS011;52756;52.826;6.214;2022-10-16T08:20:08;3.35;;;1.00;;
54937;SDS011;52756;52.826;6.214;2022-10-16T08:22:35;3.28;;;1.20;;
54937;SDS011;52756;52.826;6.214;2022-10-16T08:25:00;4.80;;;1.50;;
54937;SDS011;52756;52.826;6.214;2022-10-16T08:27:30;4.38;;;1.30;;
54937;SDS011;52756;52.826;6.214;2022-10-16T08:29:57;3.55;;;1.35;;
54937;SDS011;52756;52.826;6.214;2022-10-16T08:32:22;4.97;;;1.67;;
54937;SDS011;52756;52.826;6.214;2022-10-16T08:34:48;3.67;;;1.13;;
54937;SDS011;52756;52.826;6.214;2022-10-16T08:37:14;4.35;;;1.52;;
54937;SDS011;52756;52.826;6.214;2022-10-16T08:39:39;8.30;;;2.03;;
54937;SDS011;52756;52.826;6.214;2022-10-16T08:50:35;3.78;;;1.10;;
54937;SDS011;52756;52.826;6.214;2022-10-16T08:53:03;4.10;;;1.33;;
54937;SDS011;52756;52.826;6.214;2022-10-16T08:55:37;4.38;;;1.95;;
54937;SDS011;52756;52.826;6.214;2022-10-16T08:58:19;4.13;;;1.30;;
54937;SDS011;52756;52.826;6.214;2022-10-16T09:00:51;6.32;;;2.05;;
54937;SDS011;52756;52.826;6.214;2022-10-16T09:14:57;5.88;;;2.10;;
54937;SDS011;52756;52.826;6.214;2022-10-16T09:17:37;8.18;;;1.85;;
54937;SDS011;52756;52.826;6.214;2022-10-16T09:22:42;4.80;;;1.40;;
54937;SDS011;52756;52.826;6.214;2022-10-16T09:25:16;5.72;;;1.55;;
54937;SDS011;52756;52.826;6.214;2022-10-16T09:27:45;5.43;;;1.33;;
54937;SDS011;52756;52.826;6.214;2022-10-16T09:30:14;5.25;;;1.35;;
54937;SDS011;52756;52.826;6.214;2022-10-16T09:32:42;5.97;;;1.60;;
54937;SDS011;52756;52.826;6.214;2022-10-16T09:35:17;7.35;;;1.48;;
54937;SDS011;52756;52.826;6.214;2022-10-16T09:37:46;6.68;;;1.50;;
54937;SDS011;52756;52.826;6.214;2022-10-16T09:40:35;5.32;;;1.27;;
54937;SDS011;52756;52.826;6.214;2022-10-16T09:45:40;6.00;;;1.48;;
54937;SDS011;52756;52.826;6.214;2022-10-16T09:48:12;6.05;;;1.65;;
54937;SDS011;52756;52.826;6.214;2022-10-16T09:50:54;10.43;;;2.15;;
54937;SDS011;52756;52.826;6.214;2022-10-16T09:53:37;8.98;;;1.73;;
54937;SDS011;52756;52.826;6.214;2022-10-16T09:56:05;7.15;;;1.90;;
54937;SDS011;52756;52.826;6.214;2022-10-16T09:58:31;6.10;;;1.70;;
54937;SDS011;52756;52.826;6.214;2022-10-16T10:00:58;6.10;;;1.50;;
54937;SDS011;52756;52.826;6.214;2022-10-16T10:03:33;9.85;;;2.13;;
54937;SDS011;52756;52.826;6.214;2022-10-16T10:06:05;7.47;;;1.77;;
54937;SDS011;52756;52.826;6.214;2022-10-16T10:08:52;5.93;;;1.65;;
54937;SDS011;52756;52.826;6.214;2022-10-16T10:14:05;8.60;;;1.65;;
54937;SDS011;52756;52.826;6.214;2022-10-16T10:16:38;7.20;;;1.65;;
54937;SDS011;52756;52.826;6.214;2022-10-16T10:19:04;6.70;;;1.50;;
54937;SDS011;52756;52.826;6.214;2022-10-16T10:24:03;7.38;;;1.73;;
54937;SDS011;52756;52.826;6.214;2022-10-16T10:26:30;4.63;;;1.48;;
54937;SDS011;52756;52.826;6.214;2022-10-16T10:29:11;7.57;;;1.77;;
54937;SDS011;52756;52.826;6.214;2022-10-16T10:40:23;7.60;;;2.20;;
54937;SDS011;52756;52.826;6.214;2022-10-16T10:46:09;9.57;;;2.40;;
54937;SDS011;52756;52.826;6.214;2022-10-16T10:49:08;10.48;;;2.22;;
54937;SDS011;52756;52.826;6.214;2022-10-16T10:51:42;7.10;;;2.28;;
54937;SDS011;52756;52.826;6.214;2022-10-16T10:54:20;9.23;;;1.80;;
54937;SDS011;52756;52.826;6.214;2022-10-16T10:56:51;8.88;;;2.40;;
54937;SDS011;52756;52.826;6.214;2022-10-16T11:00:25;8.95;;;2.10;;
54937;SDS011;52756;52.826;6.214;2022-10-16T11:02:39;8.40;;;1.80;;
54937;SDS011;52756;52.826;6.214;2022-10-16T11:05:28;8.52;;;2.05;;
54937;SDS011;52756;52.826;6.214;2022-10-16T11:08:13;9.80;;;1.85;;
54937;SDS011;52756;52.826;6.214;2022-10-16T11:11:00;10.43;;;2.17;;
54937;SDS011;52756;52.826;6.214;2022-10-16T11:16:03;9.98;;;2.13;;
54937;SDS011;52756;52.826;6.214;2022-10-16T11:21:16;12.48;;;2.25;;
54937;SDS011;52756;52.826;6.214;2022-10-16T11:23:55;7.93;;;2.03;;
54937;SDS011;52756;52.826;6.214;2022-10-16T11:26:30;9.90;;;2.25;;
54937;SDS011;52756;52.826;6.214;2022-10-16T11:28:59;9.00;;;1.95;;
54937;SDS011;52756;52.826;6.214;2022-10-16T11:31:32;11.27;;;2.58;;
54937;SDS011;52756;52.826;6.214;2022-10-16T11:34:06;11.55;;;2.38;;
54937;SDS011;52756;52.826;6.214;2022-10-16T11:39:27;8.30;;;2.03;;
54937;SDS011;52756;52.826;6.214;2022-10-16T11:44:46;9.95;;;2.42;;
54937;SDS011;52756;52.826;6.214;2022-10-16T11:53:04;12.07;;;2.22;;
54937;SDS011;52756;52.826;6.214;2022-10-16T11:55:53;12.88;;;1.95;;
54937;SDS011;52756;52.826;6.214;2022-10-16T12:06:43;6.25;;;2.05;;
54937;SDS011;52756;52.826;6.214;2022-10-16T12:11:52;8.45;;;2.05;;
54937;SDS011;52756;52.826;6.214;2022-10-16T12:14:20;8.57;;;1.80;;
54937;SDS011;52756;52.826;6.214;2022-10-16T12:16:58;10.00;;;1.95;;
54937;SDS011;52756;52.826;6.214;2022-10-16T12:19:26;10.70;;;2.13;;
54937;SDS011;52756;52.826;6.214;2022-10-16T12:21:54;8.50;;;1.80;;
54937;SDS011;52756;52.826;6.214;2022-10-16T12:27:27;7.53;;;1.93;;
54937;SDS011;52756;52.826;6.214;2022-10-16T12:29:57;15.07;;;2.38;;
54937;SDS011;52756;52.826;6.214;2022-10-16T12:34:55;9.43;;;2.08;;
54937;SDS011;52756;52.826;6.214;2022-10-16T12:37:23;9.30;;;2.25;;
54937;SDS011;52756;52.826;6.214;2022-10-16T12:39:51;10.90;;;2.28;;
54937;SDS011;52756;52.826;6.214;2022-10-16T12:42:23;10.30;;;1.75;;
54937;SDS011;52756;52.826;6.214;2022-10-16T12:44:58;9.48;;;1.42;;
54937;SDS011;52756;52.826;6.214;2022-10-16T12:49:56;11.20;;;2.17;;
54937;SDS011;52756;52.826;6.214;2022-10-16T12:52:24;8.63;;;1.83;;
54937;SDS011;52756;52.826;6.214;2022-10-16T12:54:55;9.57;;;2.38;;
54937;SDS011;52756;52.826;6.214;2022-10-16T12:57:33;11.10;;;2.65;;
54937;SDS011;52756;52.826;6.214;2022-10-16T13:00:32;9.32;;;2.05;;
54937;SDS011;52756;52.826;6.214;2022-10-16T13:06:20;7.93;;;1.95;;
54937;SDS011;52756;52.826;6.214;2022-10-16T13:21:48;11.80;;;1.80;;
54937;SDS011;52756;52.826;6.214;2022-10-16T13:27:07;7.72;;;1.83;;
54937;SDS011;52756;52.826;6.214;2022-10-16T13:29:53;8.95;;;2.10;;
54937;SDS011;52756;52.826;6.214;2022-10-16T13:32:33;9.48;;;2.78;;
54937;SDS011;52756;52.826;6.214;2022-10-16T13:34:59;13.95;;;2.40;;
54937;SDS011;52756;52.826;6.214;2022-10-16T13:37:26;8.18;;;1.55;;
54937;SDS011;52756;52.826;6.214;2022-10-16T13:40:02;10.13;;;2.42;;
54937;SDS011;52756;52.826;6.214;2022-10-16T13:42:38;7.70;;;2.00;;
54937;SDS011;52756;52.826;6.214;2022-10-16T13:45:04;11.98;;;2.53;;
54937;SDS011;52756;52.826;6.214;2022-10-16T13:47:30;11.07;;;2.72;;
54937;SDS011;52756;52.826;6.214;2022-10-16T13:50:12;8.13;;;1.65;;
54937;SDS011;52756;52.826;6.214;2022-10-16T13:55:13;9.20;;;1.65;;
54937;SDS011;52756;52.826;6.214;2022-10-16T13:57:40;8.35;;;1.90;;
54937;SDS011;52756;52.826;6.214;2022-10-16T14:02:49;11.10;;;1.85;;
54937;SDS011;52756;52.826;6.214;2022-10-16T14:05:22;8.38;;;1.88;;
54937;SDS011;52756;52.826;6.214;2022-10-16T14:07:49;10.20;;;1.90;;
54937;SDS011;52756;52.826;6.214;2022-10-16T14:10:29;7.97;;;2.00;;
54937;SDS011;52756;52.826;6.214;2022-10-16T14:12:58;7.70;;;1.77;;
54937;SDS011;52756;52.826;6.214;2022-10-16T14:15:26;11.63;;;1.95;;
54937;SDS011;52756;52.826;6.214;2022-10-16T14:17:52;9.00;;;1.85;;
54937;SDS011;52756;52.826;6.214;2022-10-16T14:20:18;6.63;;;1.60;;
54937;SDS011;52756;52.826;6.214;2022-10-16T14:22:57;10.05;;;2.28;;
54937;SDS011;52756;52.826;6.214;2022-10-16T14:25:26;6.20;;;1.55;;
54937;SDS011;52756;52.826;6.214;2022-10-16T14:28:04;11.90;;;2.28;;
54937;SDS011;52756;52.826;6.214;2022-10-16T14:39:01;9.18;;;1.92;;
54937;SDS011;52756;52.826;6.214;2022-10-16T14:41:30;7.07;;;2.10;;
54937;SDS011;52756;52.826;6.214;2022-10-16T14:44:00;8.10;;;2.25;;
54937;SDS011;52756;52.826;6.214;2022-10-16T14:46:30;8.85;;;2.90;;
54937;SDS011;52756;52.826;6.214;2022-10-16T14:51:36;9.52;;;2.15;;
54937;SDS011;52756;52.826;6.214;2022-10-16T14:54:03;10.45;;;2.10;;
54937;SDS011;52756;52.826;6.214;2022-10-16T14:56:30;8.43;;;1.73;;
54937;SDS011;52756;52.826;6.214;2022-10-16T14:59:07;11.65;;;2.92;;
54937;SDS011;52756;52.826;6.214;2022-10-16T15:01:39;8.18;;;1.85;;
54937;SDS011;52756;52.826;6.214;2022-10-16T15:04:08;10.05;;;2.47;;
54937;SDS011;52756;52.826;6.214;2022-10-16T15:06:36;10.65;;;2.42;;
54937;SDS011;52756;52.826;6.214;2022-10-16T15:09:02;7.82;;;2.13;;
54937;SDS011;52756;52.826;6.214;2022-10-16T15:11:28;4.20;;;1.63;;
54937;SDS011;52756;52.826;6.214;2022-10-16T15:13:56;5.22;;;1.60;;
54937;SDS011;52756;52.826;6.214;2022-10-16T15:16:21;10.35;;;2.58;;
54937;SDS011;52756;52.826;6.214;2022-10-16T15:18:47;8.90;;;2.03;;
54937;SDS011;52756;52.826;6.214;2022-10-16T15:21:46;6.28;;;1.60;;
54937;SDS011;52756;52.826;6.214;2022-10-16T15:24:07;6.05;;;1.70;;
54937;SDS011;52756;52.826;6.214;2022-10-16T15:26:36;6.75;;;1.88;;
54937;SDS011;52756;52.826;6.214;2022-10-16T15:29:01;8.77;;;1.73;;
54937;SDS011;52756;52.826;6.214;2022-10-16T15:31:27;6.22;;;1.73;;
54937;SDS011;52756;52.826;6.214;2022-10-16T15:33:53;8.07;;;1.80;;
54937;SDS011;52756;52.826;6.214;2022-10-16T15:36:30;5.72;;;1.85;;
54937;SDS011;52756;52.826;6.214;2022-10-16T15:39:20;8.35;;;2.08;;
54937;SDS011;52756;52.826;6.214;2022-10-16T15:41:46;8.10;;;2.65;;
54937;SDS011;52756;52.826;6.214;2022-10-16T15:44:15;7.47;;;2.20;;
54937;SDS011;52756;52.826;6.214;2022-10-16T15:46:42;11.68;;;3.15;;
54937;SDS011;52756;52.826;6.214;2022-10-16T15:49:07;7.68;;;3.33;;
54937;SDS011;52756;52.826;6.214;2022-10-16T15:51:34;6.28;;;3.28;;
54937;SDS011;52756;52.826;6.214;2022-10-16T15:54:03;8.55;;;4.32;;
54937;SDS011;52756;52.826;6.214;2022-10-16T15:56:29;8.20;;;3.47;;
54937;SDS011;52756;52.826;6.214;2022-10-16T15:58:58;6.18;;;3.10;;
54937;SDS011;52756;52.826;6.214;2022-10-16T16:01:25;7.38;;;3.45;;
54937;SDS011;52756;52.826;6.214;2022-10-16T16:03:52;6.53;;;2.90;;
54937;SDS011;52756;52.826;6.214;2022-10-16T16:06:19;8.20;;;1.80;;
54937;SDS011;52756;52.826;6.214;2022-10-16T16:08:45;10.63;;;2.13;;
54937;SDS011;52756;52.826;6.214;2022-10-16T16:11:11;8.00;;;2.60;;
54937;SDS011;52756;52.826;6.214;2022-10-16T16:13:38;7.88;;;2.67;;
54937;SDS011;52756;52.826;6.214;2022-10-16T16:16:09;9.48;;;3.42;;
54937;SDS011;52756;52.826;6.214;2022-10-16T16:18:36;9.88;;;3.42;;
54937;SDS011;52756;52.826;6.214;2022-10-16T16:21:02;7.63;;;2.70;;
54937;SDS011;52756;52.826;6.214;2022-10-16T16:23:28;7.07;;;2.40;;
54937;SDS011;52756;52.826;6.214;2022-10-16T16:26:11;5.30;;;2.55;;
54937;SDS011;52756;52.826;6.214;2022-10-16T16:28:39;8.73;;;2.63;;
54937;SDS011;52756;52.826;6.214;2022-10-16T16:31:06;6.03;;;2.95;;
54937;SDS011;52756;52.826;6.214;2022-10-16T16:33:32;5.75;;;2.53;;
54937;SDS011;52756;52.826;6.214;2022-10-16T16:35:58;8.48;;;2.80;;
54937;SDS011;52756;52.826;6.214;2022-10-16T16:38:27;7.55;;;2.28;;
54937;SDS011;52756;52.826;6.214;2022-10-16T16:40:53;6.60;;;2.65;;
54937;SDS011;52756;52.826;6.214;2022-10-16T16:43:22;7.47;;;2.45;;
54937;SDS011;52756;52.826;6.214;2022-10-16T16:45:52;8.77;;;2.10;;
54937;SDS011;52756;52.826;6.214;2022-10-16T16:48:18;7.78;;;2.20;;
54937;SDS011;52756;52.826;6.214;2022-10-16T16:50:44;7.35;;;2.10;;
54937;SDS011;52756;52.826;6.214;2022-10-16T16:53:10;5.40;;;2.40;;
54937;SDS011;52756;52.826;6.214;2022-10-16T16:55:35;10.43;;;2.30;;
54937;SDS011;52756;52.826;6.214;2022-10-16T16:58:01;9.05;;;2.67;;
54937;SDS011;52756;52.826;6.214;2022-10-16T17:00:28;6.10;;;1.98;;
54937;SDS011;52756;52.826;6.214;2022-10-16T17:02:55;8.38;;;2.38;;
54937;SDS011;52756;52.826;6.214;2022-10-16T17:05:22;6.55;;;2.30;;